.
WxDataArchive / Data Records for 2006-02-15
2006-02-14 February 2006 2006-02-16

Data Records for Wednesday, 15 February 2006

Time	Temp	Chill	HIndex	Humid	Dewpt	 Wind 	HiWind	WindDir	Rain 	Barom 
-----	----	-----	------	-----	-----	------	------	-------	-----	----- 
00:00	44.2	41.4	44.2	51	27.2	5	11	248	0.00	29.859 
00:05	44.1	41.3	44.1	52	27.6	5	13	248	0.00	29.859 
00:10	44.1	41.3	44.1	51	27.1	5	16	248	0.00	29.859 
00:15	43.8	40.9	43.8	52	27.3	5	12	248	0.00	29.866 
00:20	43.8	40.9	43.8	52	27.3	5	11	270	0.00	29.866 
00:25	43.6	40.7	43.6	52	27.1	5	11	248	0.00	29.866 
00:30	43.3	41.1	43.3	53	27.3	4	10	248	0.00	29.868 
00:35	43.2	41.0	43.2	53	27.2	4	9	248	0.00	29.868 
00:40	43.2	41.0	43.2	53	27.2	4	9	248	0.00	29.868 
00:45	43.1	40.1	43.1	53	27.1	5	10	248	0.00	29.868 
00:50	43.1	40.9	43.1	54	27.6	4	10	248	0.00	29.868 
00:55	43.1	40.1	43.1	53	27.1	5	12	248	0.00	29.868 
01:00	42.8	42.8	42.8	54	27.3	3	10	248	0.00	29.878 
01:05	42.9	39.9	42.9	53	27.0	5	14	248	0.00	29.878 
01:10	42.8	40.6	42.8	54	27.3	4	9	248	0.00	29.878 
01:15	42.6	40.3	42.6	50	25.3	4	10	248	0.00	29.882 
01:20	42.5	40.2	42.5	54	27.0	4	11	248	0.00	29.882 
01:25	42.5	40.2	42.5	54	27.0	4	12	248	0.00	29.882 
01:30	42.5	40.2	42.5	54	27.0	4	10	248	0.00	29.883 
01:35	42.5	40.2	42.5	54	27.0	4	10	248	0.00	29.883 
01:40	42.5	39.4	42.5	54	27.0	5	13	248	0.00	29.883 
01:45	42.3	40.0	42.3	54	26.9	4	7	248	0.00	29.884 
01:50	42.2	39.9	42.2	54	26.8	4	7	248	0.00	29.884 
01:55	42.1	38.9	42.1	54	26.7	5	12	248	0.00	29.884 
02:00	42.1	39.7	42.1	54	26.7	4	12	248	0.00	29.882 
02:05	42.1	39.7	42.1	54	26.7	4	9	248	0.00	29.882 
02:10	42.1	39.7	42.1	54	26.7	4	11	248	0.00	29.882 
02:15	42.2	39.1	42.2	54	26.8	5	10	248	0.00	29.880 
02:20	42.2	39.1	42.2	54	26.8	5	14	248	0.00	29.880 
02:25	42.3	40.0	42.3	54	26.9	4	7	248	0.00	29.880 
02:30	42.5	38.7	42.5	53	26.6	6	13	248	0.00	29.881 
02:35	42.6	39.5	42.6	53	26.7	5	15	248	0.00	29.881 
02:40	42.6	40.3	42.6	53	26.7	4	11	248	0.00	29.881 
02:45	42.8	39.8	42.8	53	26.9	5	15	248	0.00	29.888 
02:50	42.8	39.1	42.8	52	26.4	6	14	248	0.00	29.888 
02:55	42.9	39.2	42.9	52	26.5	6	11	270	0.00	29.888 
03:00	43.1	40.1	43.1	52	26.7	5	12	248	0.00	29.893 
03:05	42.9	40.7	42.9	52	26.5	4	9	248	0.00	29.893 
03:10	43.1	40.1	43.1	52	26.7	5	10	248	0.00	29.893 
03:15	43.2	39.0	43.2	51	26.3	7	16	248	0.00	29.894 
03:20	43.2	40.2	43.2	51	26.3	5	15	248	0.00	29.894 
03:25	43.3	40.3	43.3	52	26.9	5	11	248	0.00	29.894 
03:30	43.3	40.3	43.3	52	26.9	5	17	248	0.00	29.894 
03:35	43.2	40.2	43.2	52	26.8	5	12	270	0.00	29.894 
03:40	43.3	39.7	43.3	52	26.9	6	15	248	0.00	29.894 
03:45	43.3	40.3	43.3	52	26.9	5	12	248	0.00	29.894 
03:50	43.3	40.3	43.3	52	26.9	5	10	270	0.00	29.894 
03:55	43.3	40.3	43.3	52	26.9	5	11	248	0.00	29.894 
04:00	43.3	40.3	43.3	52	26.9	5	12	248	0.00	29.893 
04:05	43.3	39.7	43.3	52	26.9	6	13	248	0.00	29.893 
04:10	43.3	39.7	43.3	52	26.9	6	15	248	0.00	29.893 
04:15	43.2	39.6	43.2	52	26.8	6	13	248	0.00	29.887 
04:20	43.2	39.6	43.2	53	27.2	6	13	270	0.00	29.887 
04:25	43.2	39.0	43.2	52	26.8	7	16	248	0.00	29.887 
04:30	43.2	39.6	43.2	52	26.8	6	18	248	0.00	29.893 
04:35	43.1	40.1	43.1	53	27.1	5	11	248	0.00	29.893 
04:40	43.1	38.9	43.1	53	27.1	7	16	248	0.00	29.893 
04:45	43.1	39.5	43.1	53	27.1	6	15	248	0.00	29.904 
04:50	42.9	39.9	42.9	53	27.0	5	12	248	0.00	29.904 
04:55	42.9	39.9	42.9	54	27.4	5	9	248	0.00	29.904 
05:00	43.1	38.9	43.1	53	27.1	7	18	270	0.00	29.912 
05:05	42.9	39.9	42.9	54	27.4	5	10	270	0.00	29.912 
05:10	42.9	39.2	42.9	54	27.4	6	11	248	0.00	29.912 
05:15	42.8	39.8	42.8	54	27.3	5	10	270	0.00	29.923 
05:20	42.8	40.6	42.8	54	27.3	4	9	270	0.00	29.923 
05:25	42.6	40.3	42.6	55	27.6	4	10	248	0.00	29.923 
05:30	42.5	40.2	42.5	55	27.5	4	10	270	0.00	29.928 
05:35	42.5	39.4	42.5	55	27.5	5	11	248	0.00	29.928 
05:40	42.5	39.4	42.5	55	27.5	5	11	270	0.00	29.928 
05:45	42.3	40.0	42.3	56	27.7	4	10	248	0.00	29.931 
05:50	42.3	39.2	42.3	56	27.7	5	11	248	0.00	29.931 
05:55	42.3	40.0	42.3	56	27.7	4	11	248	0.00	29.931 
06:00	42.2	39.9	42.2	57	28.1	4	7	248	0.00	29.937 
06:05	42.2	39.9	42.2	57	28.1	4	10	248	0.00	29.937 
06:10	42.2	39.9	42.2	57	28.1	4	10	248	0.00	29.937 
06:15	42.2	39.9	42.2	57	28.1	4	8	248	0.00	29.946 
06:20	42.1	42.1	42.1	57	28.0	3	7	248	0.00	29.946 
06:25	42.1	39.7	42.1	57	28.0	4	9	248	0.00	29.946 
06:30	42.1	42.1	42.1	58	28.4	3	9	248	0.00	29.950 
06:35	41.9	41.9	41.9	58	28.2	3	10	248	0.00	29.950 
06:40	41.9	39.5	41.9	58	28.2	4	10	270	0.00	29.950 
06:45	42.1	39.7	42.1	58	28.4	4	7	248	0.00	29.961 
06:50	41.9	39.5	41.9	58	28.2	4	6	248	0.00	29.961 
06:55	41.9	38.7	41.9	58	28.2	5	12	248	0.00	29.961 
07:00	41.9	41.9	41.9	58	28.2	3	8	248	0.00	29.964 
07:05	41.6	41.6	41.6	59	28.3	2	7	248	0.00	29.964 
07:10	41.6	41.6	41.6	59	28.3	3	10	248	0.00	29.964 
07:15	41.6	41.6	41.6	59	28.3	3	6	248	0.00	29.973 
07:20	41.5	41.5	41.5	60	28.7	2	6	248	0.00	29.973 
07:25	41.3	41.3	41.3	60	28.5	2	7	248	0.00	29.973 
07:30	41.2	41.2	41.2	60	28.4	3	7	248	0.00	29.980 
07:35	41.2	41.2	41.2	61	28.8	2	5	248	0.00	29.980 
07:40	41.1	41.1	41.1	61	28.7	2	6	248	0.00	29.980 
07:45	40.9	40.9	40.9	61	28.5	2	5	248	0.00	29.981 
07:50	40.8	40.8	40.8	62	28.8	2	4	248	0.00	29.981 
07:55	40.8	40.8	40.8	62	28.8	2	4	248	0.00	29.981 
08:00	40.6	40.6	40.6	62	28.6	2	4	248	0.00	29.993 
08:05	40.5	40.5	40.5	63	28.9	2	4	248	0.00	29.993 
08:10	40.5	40.5	40.5	63	28.9	2	4	248	0.00	29.993 
08:15	40.3	40.3	40.3	64	29.1	1	3	248	0.00	29.997 
08:20	40.2	40.2	40.2	65	29.4	1	3	248	0.00	29.997 
08:25	40.2	40.2	40.2	65	29.4	1	3	248	0.00	29.997 
08:30	40.2	40.2	40.2	65	29.4	1	3	248	0.00	30.008 
08:35	40.3	40.3	40.3	65	29.5	2	4	248	0.00	30.008 
08:40	40.6	40.6	40.6	65	29.8	2	5	248	0.00	30.008 
08:45	40.6	40.6	40.6	65	29.8	2	3	248	0.00	30.016 
08:50	40.8	40.8	40.8	65	30.0	2	7	248	0.00	30.016 
08:55	40.9	40.9	40.9	64	29.7	3	5	248	0.00	30.016 
09:00	41.2	41.2	41.2	64	30.0	2	5	248	0.00	30.027 
09:05	41.3	41.3	41.3	64	30.1	3	7	248	0.00	30.027 
09:10	41.5	41.5	41.5	64	30.2	3	9	248	0.00	30.027 
09:15	41.8	41.8	41.8	63	30.1	3	7	248	0.00	30.029 
09:20	41.9	39.5	41.9	62	29.8	4	10	248	0.00	30.029 
09:25	42.1	39.7	42.1	62	30.0	4	12	248	0.00	30.029 
09:30	42.1	42.1	42.1	62	30.0	3	6	248	0.00	30.023 
09:35	42.2	42.2	42.2	63	30.5	3	10	248	0.00	30.023 
09:40	42.3	42.3	42.3	62	30.2	2	5	248	0.00	30.023 
09:45	42.5	42.5	42.5	62	30.4	2	5	248	0.00	30.021 
09:50	42.8	42.8	42.8	61	30.3	3	7	248	0.00	30.021 
09:55	42.9	42.9	42.9	61	30.4	3	7	248	0.00	30.021 
10:00	43.2	43.2	43.2	60	30.3	3	7	248	0.00	30.026 
10:05	43.3	43.3	43.3	60	30.4	2	6	248	0.00	30.026 
10:10	43.6	43.6	43.6	60	30.6	3	6	248	0.00	30.026 
10:15	43.8	41.7	43.8	60	30.8	4	8	248	0.00	30.031 
10:20	43.9	43.9	43.9	59	30.5	3	8	248	0.00	30.031 
10:25	43.8	43.8	43.8	60	30.8	3	9	248	0.00	30.031 
10:30	44.1	44.1	44.1	59	30.7	3	10	248	0.00	30.028 
10:35	44.2	42.2	44.2	60	31.2	4	9	248	0.00	30.028 
10:40	44.2	42.2	44.2	59	30.8	4	7	248	0.00	30.028 
10:45	44.5	44.5	44.5	59	31.1	3	9	248	0.00	30.030 
10:50	44.6	44.6	44.6	59	31.2	3	6	248	0.00	30.030 
10:55	44.8	42.1	44.8	59	31.4	5	10	248	0.00	30.030 
11:00	45.1	45.1	45.1	59	31.6	2	6	248	0.00	30.034 
11:05	45.5	43.7	45.5	59	32.0	4	11	248	0.00	30.034 
11:10	45.5	43.7	45.5	58	31.6	4	11	248	0.00	30.034 
11:15	45.7	43.2	45.7	59	32.2	5	10	248	0.00	30.035 
11:20	46.1	46.1	46.1	57	31.7	3	7	248	0.00	30.035 
11:25	46.1	44.4	46.1	58	32.2	4	7	248	0.00	30.035 
11:30	46.5	46.5	46.5	58	32.5	1	4	270	0.00	30.036 
11:35	46.7	45.1	46.7	58	32.7	4	10	270	0.00	30.036 
11:40	46.8	46.8	46.8	58	32.8	2	5	270	0.00	30.036 
11:45	46.7	46.7	46.7	59	33.1	2	5	270	0.00	30.036 
11:50	46.7	46.7	46.7	58	32.7	2	7	270	0.00	30.036 
11:55	47.0	47.0	47.0	57	32.6	2	5	248	0.00	30.036 
12:00	47.0	47.0	47.0	58	33.0	2	6	248	0.00	30.038 
12:05	47.0	47.0	47.0	58	33.0	2	6	270	0.00	30.038 
12:10	46.8	46.8	46.8	57	32.4	2	5	248	0.00	30.038 
12:15	47.0	47.0	47.0	60	33.8	2	6	248	0.00	30.043 
12:20	47.4	47.4	47.4	58	33.4	2	6	248	0.00	30.043 
12:25	47.6	47.6	47.6	57	33.1	2	5	248	0.00	30.043 
12:30	47.7	47.7	47.7	59	34.1	2	5	248	0.00	30.039 
12:35	47.9	47.9	47.9	57	33.4	3	5	248	0.00	30.039 
12:40	47.7	47.7	47.7	57	33.2	2	5	248	0.00	30.039 
12:45	48.0	48.0	48.0	58	33.9	1	4	248	0.00	30.037 
12:50	47.9	47.9	47.9	58	33.8	2	5	248	0.00	30.037 
12:55	48.3	48.3	48.3	58	34.2	2	3	270	0.00	30.037 
13:00	48.5	48.5	48.5	58	34.4	2	6	292	0.00	30.039 
13:05	48.9	48.9	48.9	57	34.3	2	5	270	0.00	30.039 
13:10	49.1	49.1	49.1	58	35.0	2	5	248	0.00	30.039 
13:15	48.8	48.8	48.8	58	34.7	2	5	315	0.00	30.035 
13:20	48.5	48.5	48.5	58	34.4	2	4	338	0.00	30.035 
13:25	48.5	48.5	48.5	59	34.8	1	3	270	0.00	30.035 
13:30	48.2	48.2	48.2	57	33.7	1	2	338	0.00	30.031 
13:35	48.2	48.2	48.2	58	34.1	1	3	338	0.00	30.031 
13:40	48.2	48.2	48.2	58	34.1	1	3	315	0.00	30.031 
13:45	48.0	48.0	48.0	60	34.8	1	3	338	0.00	30.036 
13:50	48.2	48.2	48.2	58	34.1	1	5	338	0.00	30.036 
13:55	48.0	48.0	48.0	58	33.9	1	2	338	0.00	30.036 
14:00	48.2	48.2	48.2	58	34.1	1	2	338	0.00	30.038 
14:05	48.6	48.6	48.6	58	34.5	1	3	248	0.00	30.038 
14:10	48.8	48.8	48.8	59	35.1	1	4	270	0.00	30.038 
14:15	48.6	48.6	48.6	57	34.1	0	2	338	0.00	30.035 
14:20	48.6	48.6	48.6	58	34.5	0	3	248	0.00	30.035 
14:25	48.5	48.5	48.5	58	34.4	1	5	225	0.00	30.035 
14:30	48.3	48.3	48.3	58	34.2	1	4	248	0.00	30.038 
14:35	48.3	48.3	48.3	58	34.2	0	3	248	0.00	30.038 
14:40	48.2	48.2	48.2	57	33.7	0	2	248	0.00	30.038 
14:45	48.0	48.0	48.0	57	33.5	0	1	248	0.00	30.037 
14:50	48.0	48.0	48.0	58	33.9	0	2	292	0.00	30.037 
14:55	48.0	48.0	48.0	58	33.9	0	2	292	0.00	30.037 
15:00	48.2	48.2	48.2	59	34.6	0	2	292	0.00	30.037 
15:05	48.2	48.2	48.2	58	34.1	0	2	292	0.00	30.037 
15:10	48.0	48.0	48.0	58	33.9	0	1	292	0.00	30.037 
15:15	48.0	48.0	48.0	58	33.9	0	1	292	0.00	30.037 
15:20	48.0	48.0	48.0	58	33.9	0	1	292	0.00	30.037 
15:25	48.3	48.3	48.3	58	34.2	0	1	292	0.00	30.037 
15:30	48.5	48.5	48.5	59	34.8	0	1	292	0.00	30.034 
15:35	48.5	48.5	48.5	58	34.4	0	2	292	0.00	30.034 
15:40	48.3	48.3	48.3	58	34.2	0	1	292	0.00	30.034 
15:45	48.5	48.5	48.5	59	34.8	0	2	292	0.00	30.034 
15:50	48.3	48.3	48.3	59	34.6	0	1	292	0.00	30.034 
15:55	48.2	48.2	48.2	59	34.6	1	2	292	0.00	30.034 
16:00	48.0	48.0	48.0	61	35.2	0	1	292	0.00	30.035 
16:05	47.9	47.9	47.9	58	33.8	0	1	292	0.00	30.035 
16:10	47.9	47.9	47.9	59	34.3	0	2	292	0.00	30.035 
16:15	47.7	47.7	47.7	60	34.5	2	4	292	0.00	30.035 
16:20	47.6	47.6	47.6	61	34.8	2	3	90	0.00	30.035 
16:25	47.3	47.3	47.3	62	34.9	2	4	90	0.00	30.035 
16:30	47.3	47.3	47.3	62	34.9	1	3	90	0.00	30.035 
16:35	47.1	47.1	47.1	62	34.8	1	3	90	0.00	30.035 
16:40	47.0	47.0	47.0	62	34.7	2	4	68	0.00	30.035 
16:45	47.0	47.0	47.0	63	35.1	2	4	112	0.00	30.036 
16:50	46.8	46.8	46.8	63	34.9	2	4	90	0.00	30.036 
16:55	46.7	46.7	46.7	63	34.8	2	3	90	0.00	30.036 
17:00	46.7	46.7	46.7	63	34.8	1	4	90	0.00	30.038 
17:05	46.5	46.5	46.5	65	35.4	1	2	90	0.00	30.038 
17:10	46.5	46.5	46.5	65	35.4	1	3	90	0.00	30.038 
17:15	46.4	46.4	46.4	65	35.3	0	2	90	0.00	30.036 
17:20	46.2	46.2	46.2	64	34.7	1	3	90	0.00	30.036 
17:25	46.1	46.1	46.1	65	35.0	1	3	90	0.00	30.036 
17:30	46.0	46.0	46.0	65	34.9	2	4	90	0.00	30.025 
17:35	45.8	45.8	45.8	66	35.1	2	3	112	0.00	30.025 
17:40	45.5	45.5	45.5	66	34.8	1	4	112	0.00	30.025 
17:45	45.4	45.4	45.4	66	34.7	1	4	90	0.00	30.019 
17:50	45.4	45.4	45.4	66	34.7	2	4	90	0.00	30.019 
17:55	45.2	45.2	45.2	66	34.5	1	2	112	0.00	30.019 
18:00	45.2	45.2	45.2	66	34.5	1	3	112	0.00	30.019 
18:05	45.1	45.1	45.1	67	34.8	1	5	112	0.00	30.019 
18:10	45.1	45.1	45.1	67	34.8	1	3	112	0.00	30.019 
18:15	44.9	44.9	44.9	67	34.6	1	3	112	0.00	30.017 
18:20	44.9	44.9	44.9	67	34.6	1	3	90	0.00	30.017 
18:25	44.9	44.9	44.9	67	34.6	1	3	90	0.00	30.017 
18:30	44.8	44.8	44.8	67	34.5	1	2	90	0.00	30.024 
18:35	44.8	44.8	44.8	68	34.9	2	3	90	0.00	30.024 
18:40	44.6	44.6	44.6	67	34.3	2	4	112	0.00	30.024 
18:45	44.5	44.5	44.5	68	34.6	2	5	112	0.00	30.018 
18:50	44.5	44.5	44.5	68	34.6	2	5	90	0.00	30.018 
18:55	44.3	44.3	44.3	68	34.4	2	5	90	0.00	30.018 
19:00	44.3	44.3	44.3	69	34.8	2	6	90	0.00	30.023 
19:05	44.2	44.2	44.2	69	34.7	2	4	90	0.00	30.023 
19:10	44.2	44.2	44.2	69	34.7	2	5	112	0.00	30.023 
19:15	44.2	44.2	44.2	69	34.7	3	4	112	0.00	30.017 
19:20	44.1	44.1	44.1	70	35.0	2	5	112	0.00	30.017 
19:25	44.1	44.1	44.1	70	35.0	3	5	90	0.00	30.017 
19:30	43.9	43.9	43.9	71	35.1	2	3	90	0.00	30.021 
19:35	43.9	43.9	43.9	71	35.1	2	5	90	0.00	30.021 
19:40	43.9	43.9	43.9	71	35.1	2	4	90	0.00	30.021 
19:45	43.9	43.9	43.9	71	35.1	2	4	90	0.00	30.018 
19:50	43.9	43.9	43.9	72	35.5	1	4	90	0.00	30.018 
19:55	43.9	43.9	43.9	72	35.5	3	5	90	0.00	30.018 
20:00	43.9	43.9	43.9	72	35.5	2	3	90	0.00	30.013 
20:05	43.9	43.9	43.9	72	35.5	2	4	90	0.00	30.013 
20:10	43.9	43.9	43.9	72	35.5	2	5	90	0.00	30.013 
20:15	43.9	43.9	43.9	72	35.5	2	4	112	0.00	30.010 
20:20	43.9	43.9	43.9	73	35.8	2	3	112	0.00	30.010 
20:25	43.8	43.8	43.8	73	35.7	2	3	112	0.00	30.010 
20:30	43.8	43.8	43.8	73	35.7	1	3	90	0.00	30.002 
20:35	43.8	43.8	43.8	73	35.7	2	4	112	0.00	30.002 
20:40	43.8	43.8	43.8	73	35.7	2	4	90	0.00	30.002 
20:45	43.8	43.8	43.8	73	35.7	2	4	90	0.00	29.995 
20:50	43.9	43.9	43.9	73	35.8	3	5	90	0.00	29.995 
20:55	43.9	43.9	43.9	73	35.8	3	6	112	0.00	29.995 
21:00	43.9	43.9	43.9	74	36.2	3	6	112	0.00	29.988 
21:05	43.8	43.8	43.8	74	36.1	3	5	112	0.00	29.988 
21:10	43.6	43.6	43.6	74	35.9	3	5	112	0.00	29.988 
21:15	43.6	43.6	43.6	75	36.2	2	5	90	0.00	29.987 
21:20	43.6	43.6	43.6	76	36.5	2	5	90	0.00	29.987 
21:25	43.5	43.5	43.5	77	36.8	1	3	68	0.00	29.987 
21:30	43.3	43.3	43.3	79	37.2	2	4	68	0.01	29.994 
21:35	43.1	43.1	43.1	80	37.4	2	4	112	0.00	29.994 
21:40	42.8	42.8	42.8	81	37.4	2	5	90	0.00	29.994 
21:45	42.6	42.6	42.6	82	37.5	1	3	68	0.00	29.989 
21:50	42.5	42.5	42.5	83	37.7	2	4	112	0.00	29.989 
21:55	42.3	42.3	42.3	83	37.5	3	5	90	0.01	29.989 
22:00	42.3	42.3	42.3	83	37.5	3	6	90	0.00	29.978 
22:05	42.2	42.2	42.2	84	37.7	2	4	90	0.00	29.978 
22:10	41.9	41.9	41.9	84	37.4	3	4	90	0.00	29.978 
22:15	41.8	41.8	41.8	85	37.6	3	5	90	0.00	29.974 
22:20	41.6	39.2	41.6	86	37.7	4	7	112	0.01	29.974 
22:25	41.6	41.6	41.6	86	37.7	3	5	90	0.00	29.974 
22:30	41.6	39.2	41.6	86	37.7	4	9	90	0.00	29.963 
22:35	41.6	39.2	41.6	86	37.7	4	7	112	0.00	29.963 
22:40	41.8	41.8	41.8	86	37.9	3	5	112	0.00	29.963 
22:45	42.1	39.7	42.1	85	37.9	4	9	90	0.00	29.955 
22:50	42.1	42.1	42.1	86	38.2	3	6	112	0.00	29.955 
22:55	41.8	41.8	41.8	86	37.9	3	5	90	0.00	29.955 
23:00	41.6	41.6	41.6	87	38.0	2	6	90	0.00	29.946 
23:05	41.6	41.6	41.6	88	38.3	2	5	112	0.00	29.946 
23:10	41.6	41.6	41.6	87	38.0	3	7	90	0.00	29.946 
23:15	41.6	41.6	41.6	88	38.3	3	5	90	0.01	29.941 
23:20	41.6	41.6	41.6	88	38.3	3	5	90	0.00	29.941 
23:25	41.5	41.5	41.5	88	38.2	3	6	112	0.00	29.941 
23:30	41.5	41.5	41.5	89	38.5	2	4	90	0.00	29.937 
23:35	41.5	41.5	41.5	88	38.2	3	7	90	0.00	29.937 
23:40	41.5	41.5	41.5	89	38.5	3	6	112	0.01	29.937 
23:45	41.5	38.2	41.5	89	38.5	5	10	90	0.00	29.922 
23:50	41.3	38.0	41.3	89	38.3	5	9	112	0.00	29.922 
23:55	41.3	38.0	41.3	90	38.6	5	9	90	0.00	29.922 

CoCoRaHS
IN-AL-39
A2 Web Hosting
Creative Commons License
GoDaddy
Look for:

loaded 2017-12-13 09:50:08 • last modified 2010-11-18 10:43:29
Privacy PolicyDisclaimer
• wx.awcolley.com is powered by PmWiki v.2002016 •
• all content (unless otherwise noted) © 2017 A W Colley